createdAt,value
2019-05-22T00:00:00.571Z,3.07
2019-05-22T00:02:35.586Z,3.00
2019-05-22T00:05:14.408Z,3.10
2019-05-22T00:07:45.314Z,3.40
2019-05-22T00:10:19.039Z,2.90
2019-05-22T00:12:50.118Z,3.40
2019-05-22T00:15:21.300Z,3.30
2019-05-22T00:17:51.570Z,3.00
2019-05-22T00:20:23.385Z,3.00
2019-05-22T00:22:54.092Z,3.20
2019-05-22T00:25:26.483Z,2.63
2019-05-22T00:27:56.035Z,3.47
2019-05-22T00:30:27.339Z,2.80
2019-05-22T00:32:57.988Z,3.23
2019-05-22T00:35:29.060Z,2.53
2019-05-22T00:37:58.926Z,2.73
2019-05-22T00:40:29.253Z,2.90
2019-05-22T00:43:04.015Z,2.67
2019-05-22T00:45:31.888Z,2.97
2019-05-22T00:48:03.160Z,3.17
2019-05-22T00:50:40.528Z,2.73
2019-05-22T00:53:47.174Z,2.60
2019-05-22T00:56:34.113Z,3.10
2019-05-22T00:59:08.779Z,2.83
2019-05-22T01:01:45.641Z,2.83
2019-05-22T01:04:17.005Z,2.83
2019-05-22T01:06:48.554Z,2.83
2019-05-22T01:09:25.478Z,2.47
2019-05-22T01:11:56.921Z,3.00
2019-05-22T01:14:40.472Z,2.60
2019-05-22T01:16:59.512Z,2.43
2019-05-22T01:19:31.114Z,2.70
2019-05-22T01:22:01.710Z,3.07
2019-05-22T01:24:33.119Z,2.30
2019-05-22T01:27:04.560Z,2.67
2019-05-22T01:29:34.091Z,2.63
2019-05-22T01:32:26.180Z,2.70
2019-05-22T01:34:56.895Z,2.50
2019-05-22T01:37:27.410Z,2.47
2019-05-22T01:40:06.523Z,2.47
2019-05-22T01:42:41.111Z,3.00
2019-05-22T01:45:13.706Z,2.80
2019-05-22T01:47:50.902Z,2.63
2019-05-22T01:50:40.981Z,2.47
2019-05-22T01:53:12.272Z,2.70
2019-05-22T01:55:43.463Z,2.80
2019-05-22T01:58:12.932Z,2.93
2019-05-22T02:00:44.169Z,2.77
2019-05-22T02:03:14.693Z,2.80
2019-05-22T02:05:44.307Z,2.47
2019-05-22T02:08:14.262Z,2.57
2019-05-22T02:10:44.253Z,2.10
2019-05-22T02:13:15.342Z,2.10
2019-05-22T02:15:46.153Z,2.90
2019-05-22T02:18:16.385Z,2.50
2019-05-22T02:20:46.367Z,2.30
2019-05-22T02:23:17.033Z,2.07
2019-05-22T02:25:47.197Z,2.13
2019-05-22T02:28:18.363Z,1.93
2019-05-22T02:30:49.195Z,2.20
2019-05-22T02:33:21.277Z,2.27
2019-05-22T02:35:51.210Z,2.50
2019-05-22T02:38:22.240Z,2.27
2019-05-22T02:40:53.097Z,2.10
2019-05-22T02:43:25.406Z,2.30
2019-05-22T02:45:56.123Z,2.20
2019-05-22T02:48:27.829Z,2.10
2019-05-22T02:50:57.865Z,2.20
2019-05-22T02:53:27.412Z,2.10
2019-05-22T02:55:57.529Z,14.13
2019-05-22T02:58:28.820Z,11.73
2019-05-22T03:01:00.274Z,9.07
2019-05-22T03:03:32.012Z,7.07
2019-05-22T03:06:01.806Z,7.27
2019-05-22T03:08:54.070Z,5.87
2019-05-22T03:11:24.809Z,6.57
2019-05-22T03:13:59.649Z,6.80
2019-05-22T03:16:36.158Z,6.23
2019-05-22T03:19:08.904Z,6.70
2019-05-22T03:21:38.499Z,6.73
2019-05-22T03:24:08.350Z,6.23
2019-05-22T03:26:42.328Z,5.60
2019-05-22T03:29:12.180Z,5.40
2019-05-22T03:31:42.079Z,5.03
2019-05-22T03:34:12.331Z,5.20
2019-05-22T03:36:42.975Z,5.13
2019-05-22T03:39:13.957Z,5.23
2019-05-22T03:41:43.992Z,5.00
2019-05-22T03:44:13.699Z,4.90
2019-05-22T03:46:44.553Z,5.73
2019-05-22T03:49:28.916Z,5.00
2019-05-22T03:51:50.666Z,4.40
2019-05-22T03:54:21.902Z,5.13
2019-05-22T03:56:51.906Z,4.13
2019-05-22T03:59:21.924Z,4.30
2019-05-22T04:01:52.444Z,4.33
2019-05-22T04:04:36.424Z,4.20
2019-05-22T04:07:08.503Z,4.03
2019-05-22T04:09:40.034Z,4.03
2019-05-22T04:12:11.634Z,3.90
2019-05-22T04:14:42.386Z,3.37
2019-05-22T04:17:13.304Z,3.53
2019-05-22T04:19:50.288Z,3.50
2019-05-22T04:22:16.380Z,3.57
2019-05-22T04:24:46.673Z,3.37
2019-05-22T04:27:16.920Z,3.30
2019-05-22T04:29:47.566Z,3.40
2019-05-22T04:32:23.349Z,3.00
2019-05-22T04:34:53.002Z,3.17
2019-05-22T04:37:23.552Z,2.90
2019-05-22T04:39:55.339Z,3.27
2019-05-22T04:42:27.057Z,2.97
2019-05-22T04:45:11.033Z,3.20
2019-05-22T04:47:40.915Z,2.80
2019-05-22T04:50:10.800Z,2.60
2019-05-22T04:52:41.806Z,3.50
2019-05-22T04:55:13.329Z,2.70
2019-05-22T04:57:43.219Z,2.60
2019-05-22T05:00:12.941Z,3.40
2019-05-22T05:02:42.797Z,2.80
2019-05-22T05:05:12.457Z,2.77
2019-05-22T05:07:43.968Z,2.40
2019-05-22T05:10:13.592Z,2.53
2019-05-22T05:12:43.143Z,2.43
2019-05-22T05:15:13.205Z,2.50
2019-05-22T05:17:42.730Z,2.40
2019-05-22T05:20:22.164Z,2.40
2019-05-22T05:22:45.583Z,2.93
2019-05-22T05:25:15.387Z,2.60
2019-05-22T05:27:44.959Z,3.10
2019-05-22T05:30:14.910Z,2.40
2019-05-22T05:32:44.485Z,2.17
2019-05-22T05:35:14.944Z,2.33
2019-05-22T05:37:44.616Z,2.60
2019-05-22T05:40:41.347Z,2.20
2019-05-22T05:43:15.974Z,2.30
2019-05-22T05:45:46.921Z,2.47
2019-05-22T05:48:19.906Z,2.40
2019-05-22T05:51:43.090Z,2.10
2019-05-22T05:54:14.047Z,2.77
2019-05-22T05:56:46.274Z,1.90
2019-05-22T05:59:16.485Z,2.30
2019-05-22T06:01:48.852Z,2.47
2019-05-22T06:04:35.099Z,2.20
2019-05-22T06:07:19.812Z,2.03
2019-05-22T06:10:39.560Z,2.13
2019-05-22T06:13:09.949Z,2.20
2019-05-22T06:16:00.334Z,2.30
2019-05-22T06:18:36.326Z,2.23
2019-05-22T06:21:07.412Z,2.10
2019-05-22T06:24:23.386Z,1.93
2019-05-22T06:27:02.342Z,2.17
2019-05-22T06:29:36.778Z,2.03
2019-05-22T06:32:55.451Z,2.43
2019-05-22T06:35:26.728Z,2.60
2019-05-22T06:38:08.847Z,2.40
2019-05-22T06:40:38.401Z,2.20
2019-05-22T06:43:57.520Z,2.57
2019-05-22T06:46:52.272Z,2.10
2019-05-22T06:49:37.530Z,2.30
2019-05-22T06:52:07.700Z,2.40
2019-05-22T06:54:38.290Z,2.47
2019-05-22T06:57:12.212Z,2.53
2019-05-22T06:59:43.494Z,2.13
2019-05-22T07:02:15.274Z,2.83
2019-05-22T07:04:44.899Z,2.53
2019-05-22T07:07:15.584Z,2.30
2019-05-22T07:10:03.677Z,2.60
2019-05-22T07:12:35.329Z,2.70
2019-05-22T07:15:28.474Z,2.70
2019-05-22T07:17:58.778Z,2.80
2019-05-22T07:20:30.833Z,2.50
2019-05-22T07:23:01.984Z,2.30
2019-05-22T07:25:33.089Z,2.33
2019-05-22T07:28:03.411Z,2.37
2019-05-22T07:30:33.863Z,2.37
2019-05-22T07:33:03.689Z,2.70
2019-05-22T07:35:49.835Z,2.27
2019-05-22T07:38:05.328Z,2.60
2019-05-22T07:40:35.780Z,2.20
2019-05-22T07:43:05.467Z,2.47
2019-05-22T07:45:35.968Z,2.13
2019-05-22T07:48:07.999Z,2.77
2019-05-22T07:50:42.131Z,2.53
2019-05-22T07:53:12.052Z,2.60
2019-05-22T07:55:41.902Z,2.60
2019-05-22T07:58:13.988Z,2.67
2019-05-22T08:00:50.324Z,2.70
2019-05-22T08:03:20.163Z,2.63
2019-05-22T08:05:53.603Z,2.43
2019-05-22T08:08:23.716Z,2.60
2019-05-22T08:10:54.398Z,2.67
2019-05-22T08:13:24.344Z,2.67
2019-05-22T08:15:54.362Z,2.20
2019-05-22T08:18:25.145Z,2.63
2019-05-22T08:20:54.697Z,2.50
2019-05-22T08:23:24.332Z,2.27
2019-05-22T08:25:53.889Z,2.73
2019-05-22T08:28:23.587Z,2.60
2019-05-22T08:30:53.525Z,2.50
2019-05-22T08:33:24.059Z,2.90
2019-05-22T08:35:53.844Z,2.13
2019-05-22T08:38:27.925Z,2.43
2019-05-22T08:40:59.376Z,2.37
2019-05-22T08:43:29.470Z,2.73
2019-05-22T08:45:59.081Z,2.67
2019-05-22T08:48:29.383Z,2.83
2019-05-22T08:51:00.153Z,2.50
2019-05-22T08:53:44.378Z,2.67
2019-05-22T08:56:01.844Z,3.20
2019-05-22T08:58:32.082Z,2.60
2019-05-22T09:01:01.653Z,3.00
2019-05-22T09:03:31.232Z,2.47
2019-05-22T09:06:00.919Z,2.37
2019-05-22T09:08:31.325Z,2.90
2019-05-22T09:11:00.876Z,3.70
2019-05-22T09:13:30.414Z,3.37
2019-05-22T09:16:01.934Z,4.00
2019-05-22T09:18:32.177Z,4.50
2019-05-22T09:21:01.943Z,4.30
2019-05-22T09:23:31.517Z,4.40
2019-05-22T09:26:01.228Z,4.97
2019-05-22T09:28:30.762Z,4.53
2019-05-22T09:31:00.448Z,4.23
2019-05-22T09:33:30.040Z,4.77
2019-05-22T09:35:59.588Z,4.30
2019-05-22T09:38:29.242Z,4.40
2019-05-22T09:40:59.567Z,3.80
2019-05-22T09:43:29.126Z,3.03
2019-05-22T09:45:58.679Z,3.80
2019-05-22T09:48:28.282Z,3.60
2019-05-22T09:50:58.208Z,3.97
2019-05-22T09:53:28.560Z,3.30
2019-05-22T09:55:58.257Z,4.03
2019-05-22T09:58:28.793Z,3.80
2019-05-22T10:00:58.725Z,3.50
2019-05-22T10:03:28.283Z,4.17
2019-05-22T10:05:58.755Z,3.40
2019-05-22T10:08:28.817Z,3.80
2019-05-22T10:10:58.772Z,3.80
2019-05-22T10:13:29.445Z,3.10
2019-05-22T10:15:59.023Z,3.43
2019-05-22T10:18:28.768Z,3.37
2019-05-22T10:20:58.434Z,4.00
2019-05-22T10:23:28.417Z,3.50
2019-05-22T10:25:57.963Z,2.90
2019-05-22T10:28:27.999Z,2.80
2019-05-22T10:30:58.319Z,3.00
2019-05-22T10:33:28.349Z,3.00
2019-05-22T10:35:58.761Z,2.60
2019-05-22T10:38:28.443Z,3.13
2019-05-22T10:40:59.515Z,3.47
2019-05-22T10:43:29.570Z,3.33
2019-05-22T10:45:59.553Z,3.27
2019-05-22T10:48:29.191Z,3.67
2019-05-22T10:50:58.738Z,3.50
2019-05-22T10:53:33.516Z,3.83
2019-05-22T10:55:59.829Z,3.63
2019-05-22T10:58:29.654Z,3.67
2019-05-22T11:00:59.799Z,3.10
2019-05-22T11:03:29.578Z,2.57
2019-05-22T11:06:07.311Z,3.30
2019-05-22T11:08:34.340Z,3.60
2019-05-22T11:11:03.471Z,3.10
2019-05-22T11:13:34.461Z,2.93
2019-05-22T11:16:04.636Z,3.30
2019-05-22T11:18:34.888Z,3.60
2019-05-22T11:21:04.560Z,4.13
2019-05-22T11:23:50.363Z,4.00
2019-05-22T11:26:05.441Z,4.10
2019-05-22T11:28:35.305Z,3.93
2019-05-22T11:31:06.616Z,3.87
2019-05-22T11:33:36.376Z,3.70
2019-05-22T11:36:06.595Z,4.13
2019-05-22T11:38:36.165Z,3.93
2019-05-22T11:41:06.748Z,3.90
2019-05-22T11:43:36.319Z,4.13
2019-05-22T11:46:06.609Z,4.43
2019-05-22T11:48:36.176Z,4.60
2019-05-22T11:51:05.741Z,4.90
2019-05-22T11:53:35.669Z,4.13
2019-05-22T11:56:05.253Z,4.57
2019-05-22T11:58:34.866Z,4.40
2019-05-22T12:01:05.093Z,3.47
2019-05-22T12:03:34.688Z,3.50
2019-05-22T12:06:05.439Z,3.50
2019-05-22T12:08:35.771Z,3.90
2019-05-22T12:11:05.894Z,3.83
2019-05-22T12:13:35.504Z,4.07
2019-05-22T12:16:05.566Z,5.13
2019-05-22T12:18:35.535Z,4.87
2019-05-22T12:21:05.175Z,4.73
2019-05-22T12:23:35.017Z,4.80
2019-05-22T12:26:04.996Z,5.50
2019-05-22T12:28:34.552Z,5.73
2019-05-22T12:31:04.944Z,5.50
2019-05-22T12:33:34.494Z,6.03
2019-05-22T12:36:05.876Z,5.67
2019-05-22T12:38:35.428Z,5.33
2019-05-22T12:41:05.333Z,5.37
2019-05-22T12:43:35.243Z,4.53
2019-05-22T12:46:04.787Z,4.47
2019-05-22T12:48:34.561Z,4.50
2019-05-22T12:51:04.959Z,4.70
2019-05-22T12:53:34.744Z,4.80
2019-05-22T12:56:06.348Z,4.33
2019-05-22T12:58:35.910Z,4.57
2019-05-22T13:01:06.076Z,4.50
2019-05-22T13:03:36.298Z,3.87
2019-05-22T13:06:06.642Z,3.83
2019-05-22T13:08:36.709Z,3.47
2019-05-22T13:11:06.818Z,3.50
2019-05-22T13:13:36.436Z,4.03
2019-05-22T13:16:06.050Z,4.07
2019-05-22T13:18:36.387Z,3.97
2019-05-22T13:21:07.991Z,4.20
2019-05-22T13:23:39.530Z,4.20
2019-05-22T13:26:09.339Z,4.13
2019-05-22T13:28:39.941Z,4.00
2019-05-22T13:31:09.882Z,3.67
2019-05-22T13:33:39.928Z,4.00
2019-05-22T13:36:10.913Z,4.60
2019-05-22T13:38:40.565Z,3.80
2019-05-22T13:41:10.597Z,3.87
2019-05-22T13:43:40.165Z,3.63
2019-05-22T13:46:09.719Z,3.83
2019-05-22T13:48:39.691Z,4.00
2019-05-22T13:51:09.326Z,3.67
2019-05-22T13:53:39.232Z,3.53
2019-05-22T13:56:09.283Z,3.57
2019-05-22T13:58:38.961Z,2.90
2019-05-22T14:01:08.579Z,3.40
2019-05-22T14:03:38.534Z,3.03
2019-05-22T14:06:08.183Z,2.60
2019-05-22T14:08:38.252Z,2.67
2019-05-22T14:11:08.179Z,3.40
2019-05-22T14:13:38.227Z,2.90
2019-05-22T14:16:07.766Z,3.30
2019-05-22T14:18:37.327Z,3.10
2019-05-22T14:21:06.994Z,3.83
2019-05-22T14:23:37.286Z,3.87
2019-05-22T14:26:07.087Z,4.33
2019-05-22T14:28:36.850Z,4.10
2019-05-22T14:31:06.435Z,3.50
2019-05-22T14:33:40.215Z,3.80
2019-05-22T14:36:07.287Z,3.57
2019-05-22T14:38:36.879Z,3.47
2019-05-22T14:41:06.894Z,2.80
2019-05-22T14:43:36.453Z,2.90
2019-05-22T14:46:06.326Z,2.80
2019-05-22T14:48:35.993Z,2.97
2019-05-22T14:51:05.911Z,3.10
2019-05-22T14:53:37.093Z,3.10
2019-05-22T14:56:10.908Z,2.50
2019-05-22T14:58:40.847Z,2.50
2019-05-22T15:01:10.512Z,2.40
2019-05-22T15:03:40.096Z,2.40
2019-05-22T15:06:09.661Z,2.37
2019-05-22T15:08:39.209Z,1.73
2019-05-22T15:11:09.055Z,2.00
2019-05-22T15:13:38.675Z,2.37
2019-05-22T15:16:08.316Z,1.83
2019-05-22T15:18:37.886Z,1.53
2019-05-22T15:21:08.240Z,2.33
2019-05-22T15:23:38.488Z,1.97
2019-05-22T15:26:08.038Z,2.17
2019-05-22T15:28:37.655Z,1.87
2019-05-22T15:31:07.344Z,1.70
2019-05-22T15:33:36.869Z,1.33
2019-05-22T15:36:07.964Z,1.80
2019-05-22T15:38:38.229Z,1.80
2019-05-22T15:41:08.048Z,1.50
2019-05-22T15:43:38.086Z,1.60
2019-05-22T15:46:08.506Z,1.93
2019-05-22T15:48:38.332Z,1.97
2019-05-22T15:51:08.989Z,1.50
2019-05-22T15:53:40.536Z,1.70
2019-05-22T15:56:10.389Z,1.97
2019-05-22T15:58:42.029Z,1.60
2019-05-22T16:01:13.053Z,1.50
2019-05-22T16:03:43.252Z,1.90
2019-05-22T16:06:13.065Z,1.70
2019-05-22T16:08:43.296Z,1.50
2019-05-22T16:11:14.225Z,1.33
2019-05-22T16:13:44.257Z,1.07
2019-05-22T16:16:14.712Z,1.77
2019-05-22T16:18:45.185Z,1.63
2019-05-22T16:21:14.781Z,1.77
2019-05-22T16:23:44.602Z,1.73
2019-05-22T16:26:14.640Z,1.27
2019-05-22T16:28:45.846Z,1.57
2019-05-22T16:31:16.380Z,1.63
2019-05-22T16:33:47.362Z,1.40
2019-05-22T16:36:18.752Z,1.50
2019-05-22T16:38:48.783Z,1.30
2019-05-22T16:41:18.361Z,1.33
2019-05-22T16:43:50.217Z,1.40
2019-05-22T16:46:20.419Z,1.47
2019-05-22T16:48:50.041Z,1.60
2019-05-22T16:51:19.989Z,1.60
2019-05-22T16:53:51.889Z,1.70
2019-05-22T16:56:23.203Z,1.40
2019-05-22T16:58:53.012Z,1.60
2019-05-22T17:01:22.695Z,2.20
2019-05-22T17:03:54.026Z,1.40
2019-05-22T17:06:26.049Z,1.50
2019-05-22T17:08:57.150Z,1.43
2019-05-22T17:11:27.769Z,1.67
2019-05-22T17:13:59.089Z,1.27
2019-05-22T17:16:29.413Z,1.43
2019-05-22T17:18:59.039Z,1.60
2019-05-22T17:21:28.957Z,1.87
2019-05-22T17:23:59.220Z,1.70
2019-05-22T17:26:28.883Z,1.77
2019-05-22T17:28:58.493Z,1.90
2019-05-22T17:31:28.942Z,1.70
2019-05-22T17:33:59.157Z,1.33
2019-05-22T17:36:30.643Z,2.10
2019-05-22T17:39:01.125Z,1.43
2019-05-22T17:41:30.720Z,1.33
2019-05-22T17:44:01.541Z,1.37
2019-05-22T17:46:31.366Z,2.03
2019-05-22T17:49:01.218Z,1.17
2019-05-22T17:51:31.729Z,1.60
2019-05-22T17:54:01.306Z,1.50
2019-05-22T17:56:31.027Z,1.40
2019-05-22T17:59:00.720Z,1.73
2019-05-22T18:01:30.771Z,1.60
2019-05-22T18:04:00.321Z,1.87
2019-05-22T18:06:29.902Z,1.57
2019-05-22T18:08:59.573Z,1.50
2019-05-22T18:11:29.305Z,1.50
2019-05-22T18:14:00.583Z,1.40
2019-05-22T18:16:31.056Z,1.80
2019-05-22T18:19:00.877Z,1.53
2019-05-22T18:21:32.217Z,1.77
2019-05-22T18:24:01.928Z,2.10
2019-05-22T18:26:31.655Z,1.83
2019-05-22T18:29:01.312Z,1.70
2019-05-22T18:31:30.895Z,1.70
2019-05-22T18:34:00.488Z,1.63
2019-05-22T18:36:30.081Z,1.50
2019-05-22T18:38:59.678Z,1.80
2019-05-22T18:41:29.254Z,1.43
2019-05-22T18:43:59.105Z,1.63
2019-05-22T18:46:28.949Z,1.40
2019-05-22T18:48:58.498Z,1.60
2019-05-22T18:51:28.564Z,1.40
2019-05-22T18:53:58.134Z,1.27
2019-05-22T18:56:27.932Z,1.30
2019-05-22T18:58:57.676Z,1.60
2019-05-22T19:01:27.724Z,1.10
2019-05-22T19:03:57.276Z,1.30
2019-05-22T19:06:30.665Z,1.30
2019-05-22T19:08:58.580Z,1.27
2019-05-22T19:11:28.512Z,1.40
2019-05-22T19:13:58.096Z,1.20
2019-05-22T19:16:27.662Z,1.40
2019-05-22T19:18:57.216Z,1.40
2019-05-22T19:21:26.843Z,1.47
2019-05-22T19:23:56.437Z,1.43
2019-05-22T19:26:26.680Z,1.10
2019-05-22T19:28:56.225Z,1.20
2019-05-22T19:31:26.130Z,0.93
2019-05-22T19:33:56.130Z,1.00
2019-05-22T19:36:25.689Z,1.07
2019-05-22T19:38:55.284Z,1.40
2019-05-22T19:41:25.029Z,1.60
2019-05-22T19:43:54.790Z,1.30
2019-05-22T19:46:24.585Z,1.27
2019-05-22T19:48:54.600Z,1.23
2019-05-22T19:51:24.214Z,1.37
2019-05-22T19:53:54.488Z,1.60
2019-05-22T19:56:24.401Z,1.40
2019-05-22T19:59:12.795Z,1.50
2019-05-22T20:01:42.540Z,1.40
2019-05-22T20:04:12.245Z,1.60
2019-05-22T20:06:41.782Z,1.30
2019-05-22T20:09:11.832Z,1.57
2019-05-22T20:11:41.778Z,1.57
2019-05-22T20:14:11.673Z,1.10
2019-05-22T20:16:41.222Z,1.40
2019-05-22T20:19:11.624Z,1.70
2019-05-22T20:21:41.515Z,1.57
2019-05-22T20:24:12.131Z,1.60
2019-05-22T20:26:41.937Z,1.80
2019-05-22T20:29:12.389Z,1.63
2019-05-22T20:31:42.034Z,1.57
2019-05-22T20:34:11.612Z,1.30
2019-05-22T20:36:41.616Z,1.27
2019-05-22T20:39:12.813Z,1.80
2019-05-22T20:41:42.809Z,1.60
2019-05-22T20:44:12.615Z,1.77
2019-05-22T20:46:43.020Z,1.70
2019-05-22T20:49:12.789Z,1.60
2019-05-22T20:51:43.835Z,1.53
2019-05-22T20:54:15.076Z,1.60
2019-05-22T20:56:46.830Z,1.57
2019-05-22T20:59:17.070Z,1.50
2019-05-22T21:01:46.924Z,1.70
2019-05-22T21:04:18.877Z,1.70
2019-05-22T21:06:55.005Z,1.60
2019-05-22T21:09:24.794Z,2.07
2019-05-22T21:11:54.499Z,1.60
2019-05-22T21:14:24.376Z,1.73
2019-05-22T21:16:53.946Z,1.60
2019-05-22T21:19:23.952Z,1.70
2019-05-22T21:21:55.902Z,1.63
2019-05-22T21:24:26.438Z,1.30
2019-05-22T21:26:56.068Z,1.70
2019-05-22T21:29:25.781Z,1.70
2019-05-22T21:31:55.422Z,1.63
2019-05-22T21:34:25.936Z,1.70
2019-05-22T21:36:55.501Z,1.50
2019-05-22T21:39:25.695Z,1.70
2019-05-22T21:41:55.324Z,1.50
2019-05-22T21:44:24.881Z,1.43
2019-05-22T21:46:54.864Z,1.57
2019-05-22T21:49:25.538Z,1.43
2019-05-22T21:51:55.578Z,1.87
2019-05-22T21:54:25.251Z,1.80
2019-05-22T21:56:55.117Z,1.67
2019-05-22T21:59:25.091Z,1.53
2019-05-22T22:02:03.112Z,1.50
2019-05-22T22:04:36.153Z,1.20
2019-05-22T22:07:06.921Z,1.50
2019-05-22T22:09:37.166Z,1.60
2019-05-22T22:12:08.352Z,1.50
2019-05-22T22:14:38.236Z,1.53
2019-05-22T22:17:09.426Z,1.50
2019-05-22T22:19:39.434Z,1.50
2019-05-22T22:22:10.704Z,1.40
2019-05-22T22:24:40.267Z,1.50
2019-05-22T22:27:10.200Z,1.50
2019-05-22T22:29:40.102Z,1.90
2019-05-22T22:32:11.364Z,1.60
2019-05-22T22:34:45.482Z,1.50
2019-05-22T22:37:16.828Z,1.80
2019-05-22T22:39:50.179Z,1.40
2019-05-22T22:42:21.302Z,1.70
2019-05-22T22:44:54.276Z,1.70
2019-05-22T22:47:45.422Z,1.50
2019-05-22T22:50:16.681Z,1.37
2019-05-22T22:52:46.999Z,1.90
2019-05-22T22:55:19.061Z,1.83
2019-05-22T22:57:49.718Z,1.73
2019-05-22T23:00:25.209Z,1.80
2019-05-22T23:02:54.772Z,1.93
2019-05-22T23:05:24.456Z,1.50
2019-05-22T23:07:54.615Z,1.70
2019-05-22T23:10:24.457Z,1.47
2019-05-22T23:12:54.279Z,1.67
2019-05-22T23:15:25.601Z,1.70
2019-05-22T23:17:55.599Z,1.70
2019-05-22T23:20:43.770Z,1.90
2019-05-22T23:23:13.809Z,1.53
2019-05-22T23:25:43.338Z,1.80
2019-05-22T23:28:13.059Z,1.60
2019-05-22T23:30:42.679Z,1.80
2019-05-22T23:33:12.206Z,1.53
2019-05-22T23:35:41.805Z,1.53
2019-05-22T23:38:11.651Z,1.70
2019-05-22T23:40:41.199Z,1.90
2019-05-22T23:43:10.734Z,1.50
2019-05-22T23:45:40.271Z,1.50
2019-05-22T23:48:16.129Z,1.60
2019-05-22T23:50:47.289Z,1.40
2019-05-22T23:53:18.461Z,1.57
2019-05-22T23:55:48.640Z,1.87
2019-05-22T23:58:51.616Z,1.60
